Time;durP1;ratioP1;P1;durP2;ratioP2;P2;SDS_P1;SDS_P2;PMS_P1;PMS_P2;Temp;Humidity;BMP_temperature;BMP_pressure;BME280_temperature;BME280_humidity;BME280_pressure;Samples;Min_cycle;Max_cycle;Signal;HPM_P1;HPM_P2
2022/09/02 00:02:16;;;;;;;;;9.00;7.67;;;;;24.50;37.03;100831.97;5076351;28;45435;-67
2022/09/02 00:04:42;;;;;;;;;8.00;8.00;;;;;24.44;37.02;100843.84;5076926;27;47236;-70
2022/09/02 00:07:08;;;;;;;;;7.67;7.67;;;;;24.42;36.92;100828.81;5077785;28;45423;-69
2022/09/02 00:09:36;;;;;;;;;10.00;10.00;;;;;24.43;37.46;100831.41;5073679;28;45410;-65
2022/09/02 00:12:03;;;;;;;;;7.67;7.00;;;;;24.46;36.93;100825.00;5074274;27;45418;-62
2022/09/02 00:14:34;;;;;;;;;14.00;10.00;;;;;24.39;36.97;100829.81;5075916;27;45518;-63
2022/09/02 00:17:01;;;;;;;;;12.67;10.00;;;;;24.23;37.44;100805.72;5073561;27;45931;-63
2022/09/02 00:19:28;;;;;;;;;11.33;11.33;;;;;24.35;37.21;100828.28;5074926;28;45436;-63
2022/09/02 00:21:56;;;;;;;;;9.00;9.00;;;;;24.33;37.59;100819.47;5077144;27;45328;-63
2022/09/02 00:24:23;;;;;;;;;9.33;9.33;;;;;;;;5068984;28;46621;-70
2022/09/02 00:26:49;;;;;;;;;11.00;10.33;;;;;24.30;37.71;100808.94;5069026;27;45424;-69
2022/09/02 00:29:16;;;;;;;;;10.67;9.00;;;;;24.16;37.94;100807.00;5076818;27;45490;-62
2022/09/02 00:31:42;;;;;;;;;9.33;9.33;;;;;24.04;37.92;100805.84;5076900;27;45430;-70
2022/09/02 00:34:09;;;;;;;;;10.00;10.00;;;;;24.06;38.15;100797.72;5076497;27;46225;-66
2022/09/02 00:36:37;;;;;;;;;9.00;9.00;;;;;24.06;37.78;100792.38;5076824;27;45277;-66
2022/09/02 00:39:04;;;;;;;;;7.00;7.00;;;;;24.06;37.92;100793.25;5077652;27;45626;-70
2022/09/02 00:41:31;;;;;;;;;8.67;8.67;;;;;24.08;38.15;100802.06;5076446;27;45493;-69
2022/09/02 00:44:04;;;;;;;;;11.67;8.00;;;;;24.04;38.62;100791.59;5076140;27;45804;-64
2022/09/02 00:46:31;;;;;;;;;10.33;10.33;;;;;23.87;38.55;100766.63;5075654;27;45485;-68
2022/09/02 00:49:06;;;;;;;;;8.00;8.00;;;;;23.98;38.74;100790.09;5077064;28;45409;-62
2022/09/02 00:51:36;;;;;;;;;11.67;10.00;;;;;23.97;38.71;100792.88;5058838;28;45607;-63
2022/09/02 00:54:05;;;;;;;;;9.00;9.00;;;;;23.91;38.78;100794.06;5076167;28;46234;-63
2022/09/02 00:56:31;;;;;;;;;10.00;8.67;;;;;23.89;38.98;100793.25;5075844;27;45705;-63
2022/09/02 00:58:58;;;;;;;;;10.67;10.67;;;;;23.85;39.08;100791.72;5078986;27;45477;-63
2022/09/02 01:01:25;;;;;;;;;9.00;9.00;;;;;23.85;39.11;100787.22;5076642;27;45523;-63
2022/09/02 01:03:52;;;;;;;;;9.67;9.67;;;;;23.81;39.06;100780.31;5076125;27;45797;-64
2022/09/02 01:06:25;;;;;;;;;9.00;8.33;;;;;23.84;39.18;100792.66;5074433;28;45587;-65
2022/09/02 01:09:07;;;;;;;;;11.00;9.67;;;;;23.76;39.25;100789.53;5075526;28;45428;-67
2022/09/02 01:11:40;;;;;;;;;8.33;8.00;;;;;23.77;39.38;100788.56;5074193;27;45774;-64
2022/09/02 01:14:06;;;;;;;;;11.00;9.67;;;;;23.71;39.73;100789.72;5075535;28;45913;-71
2022/09/02 01:16:50;;;;;;;;;9.67;9.67;;;;;23.63;39.75;100787.47;5064621;27;45567;-64
2022/09/02 01:19:37;;;;;;;;;11.33;8.00;;;;;23.53;40.01;100782.66;5061538;28;45433;-65
2022/09/02 01:22:15;;;;;;;;;10.33;8.33;;;;;23.48;39.90;100781.06;5075642;27;45973;-65
2022/09/02 01:24:40;;;;;;;;;9.00;9.00;;;;;23.42;40.07;100778.72;5074011;28;46448;-65
2022/09/02 01:27:06;;;;;;;;;12.33;9.00;;;;;23.43;40.27;100779.59;5075801;27;45488;-65
2022/09/02 01:29:31;;;;;;;;;8.33;8.00;;;;;23.46;40.13;100784.75;5062030;28;45496;-64
2022/09/02 01:31:57;;;;;;;;;11.00;9.00;;;;;23.40;40.33;100779.75;5076845;28;45851;-63
2022/09/02 01:34:23;;;;;;;;;12.00;10.33;;;;;23.41;40.61;100790.34;5074880;28;47974;-64
2022/09/02 01:36:49;;;;;;;;;10.33;10.33;;;;;23.43;40.50;100783.13;5075371;28;45569;-63
2022/09/02 01:39:15;;;;;;;;;9.00;9.00;;;;;23.40;40.30;100780.59;5075714;28;45733;-67
2022/09/02 01:41:42;;;;;;;;;10.33;9.33;;;;;23.47;40.70;100787.38;5075495;27;45479;-63
2022/09/02 01:44:08;;;;;;;;;9.67;8.67;;;;;23.45;40.40;100788.38;5076009;28;45795;-65
2022/09/02 01:46:35;;;;;;;;;8.67;8.67;;;;;23.45;40.23;100780.38;5061917;27;45805;-64
2022/09/02 01:49:00;;;;;;;;;9.00;8.33;;;;;23.41;40.73;100773.44;5074038;28;45614;-63
2022/09/02 01:51:26;;;;;;;;;11.67;10.33;;;;;23.46;40.59;100782.94;5076010;27;45601;-63
2022/09/02 01:53:52;;;;;;;;;9.67;9.67;;;;;23.49;40.64;100776.56;5078750;27;46262;-68
2022/09/02 01:56:18;;;;;;;;;8.00;8.00;;;;;23.48;40.97;100761.50;5091136;27;45889;-63
2022/09/02 01:58:43;;;;;;;;;10.33;8.00;;;;;23.43;40.61;100758.19;5077720;28;46063;-65
2022/09/02 02:01:10;;;;;;;;;13.67;10.67;;;;;23.47;40.64;100776.69;5080055;27;45356;-65
2022/09/02 02:03:36;;;;;;;;;10.33;10.33;;;;;23.45;40.77;100773.22;5091906;27;47117;-67
2022/09/02 02:06:08;;;;;;;;;11.33;9.67;;;;;23.48;40.59;100786.41;5068177;28;45392;-68
2022/09/02 02:08:34;;;;;;;;;10.33;8.00;;;;;23.52;40.61;100835.25;5076218;27;45419;-71
2022/09/02 02:11:00;;;;;;;;;8.33;8.33;;;;;23.58;40.72;100816.22;5074178;27;45473;-64
2022/09/02 02:13:25;;;;;;;;;7.33;5.33;;;;;23.65;40.64;100811.41;5073656;27;46586;-63
2022/09/02 02:15:51;;;;;;;;;9.00;9.00;;;;;23.68;40.21;100836.22;5075193;27;45745;-67
2022/09/02 02:18:17;;;;;;;;;8.33;8.00;;;;;23.75;40.29;100798.47;5074589;27;45480;-63
2022/09/02 02:20:43;;;;;;;;;9.33;9.33;;;;;23.78;39.91;100782.28;5061972;27;45505;-67
2022/09/02 02:23:09;;;;;;;;;6.67;6.67;;;;;23.86;40.44;100822.84;5076835;28;48034;-65
2022/09/02 02:25:35;;;;;;;;;11.67;10.00;;;;;23.90;40.00;100836.00;5077363;28;45400;-66
2022/09/02 02:28:01;;;;;;;;;10.00;10.00;;;;;23.89;39.74;100788.81;5074522;27;45525;-70
2022/09/02 02:30:27;;;;;;;;;11.67;8.33;;;;;23.87;39.58;100819.22;5076452;28;45393;-64
2022/09/02 02:32:53;;;;;;;;;6.67;6.67;;;;;23.91;39.85;100818.13;5079427;28;45971;-68
2022/09/02 02:35:19;;;;;;;;;8.00;7.00;;;;;23.87;39.76;100800.50;5074751;27;45718;-72
2022/09/02 02:37:48;;;;;;;;;10.33;9.67;;;;;23.86;40.06;100817.50;5061569;27;45587;-66
2022/09/02 02:40:15;;;;;;;;;8.00;8.00;;;;;23.77;40.23;100813.50;5074430;28;45401;-63
2022/09/02 02:42:40;;;;;;;;;9.33;9.33;;;;;23.77;40.41;100809.97;5075975;27;46506;-63
2022/09/02 02:45:10;;;;;;;;;8.67;8.67;;;;;23.66;40.89;100792.63;5075044;27;45523;-63
2022/09/02 02:47:39;;;;;;;;;7.00;7.00;;;;;23.70;40.48;100788.88;5074890;27;45627;-63
2022/09/02 02:50:09;;;;;;;;;6.00;6.00;;;;;23.79;40.55;100786.69;5075143;28;45711;-67
2022/09/02 02:52:34;;;;;;;;;7.33;6.00;;;;;23.82;39.88;100792.72;5074587;28;45693;-63
2022/09/02 02:55:00;;;;;;;;;6.00;6.00;;;;;23.90;39.95;100787.84;5074540;27;45658;-67
2022/09/02 02:57:25;;;;;;;;;6.67;6.67;;;;;23.96;40.07;100792.00;5074405;27;45484;-64
2022/09/02 02:59:51;;;;;;;;;8.33;7.00;;;;;23.88;40.42;100795.06;5074180;27;45481;-65
2022/09/02 03:02:17;;;;;;;;;7.00;6.33;;;;;23.88;40.25;100783.53;5074213;27;45579;-62
2022/09/02 03:04:43;;;;;;;;;8.00;8.00;;;;;23.92;40.27;100790.44;5075231;27;45392;-68
2022/09/02 03:07:09;;;;;;;;;6.67;6.67;;;;;23.89;40.56;100785.25;5078673;27;45400;-65
2022/09/02 03:09:35;;;;;;;;;7.00;7.00;;;;;23.84;40.53;100779.28;5077056;27;45448;-69
2022/09/02 03:12:01;;;;;;;;;8.00;7.33;;;;;23.67;40.94;100764.94;5074605;27;45419;-67
2022/09/02 03:14:27;;;;;;;;;9.33;6.67;;;;;23.69;40.75;100771.06;5074258;28;45358;-62
2022/09/02 03:16:52;;;;;;;;;8.33;6.00;;;;;23.78;40.67;100777.78;5073747;28;45352;-67
2022/09/02 03:19:18;;;;;;;;;6.67;6.67;;;;;23.83;40.40;100765.03;5076160;28;45392;-62
2022/09/02 03:21:43;;;;;;;;;8.00;8.00;;;;;23.96;40.18;100778.63;5062048;28;46531;-64
2022/09/02 03:24:11;;;;;;;;;10.67;8.67;;;;;23.98;40.04;100767.84;5074160;28;45305;-64
2022/09/02 03:26:37;;;;;;;;;14.67;10.00;;;;;24.01;40.64;100770.34;5074354;28;45403;-67
2022/09/02 03:29:05;;;;;;;;;11.00;10.67;;;;;24.03;40.40;100763.09;5074564;27;45508;-65
2022/09/02 03:31:30;;;;;;;;;13.67;12.33;;;;;24.03;40.44;100766.63;5073793;28;46191;-63
2022/09/02 03:33:56;;;;;;;;;13.33;13.33;;;;;24.08;40.41;100774.41;5073650;27;45485;-66
2022/09/02 03:36:31;;;;;;;;;17.33;14.67;;;;;24.05;40.19;100767.44;5073745;27;45450;-65
2022/09/02 03:38:58;;;;;;;;;19.67;17.33;;;;;24.06;40.27;100769.16;5074213;27;45567;-63
2022/09/02 03:41:24;;;;;;;;;14.67;14.33;;;;;24.08;40.32;100763.72;5071840;28;45495;-66
2022/09/02 03:43:50;;;;;;;;;21.00;20.67;;;;;24.05;40.67;100759.41;5073521;27;45405;-65
2022/09/02 03:46:16;;;;;;;;;18.67;17.33;;;;;23.97;40.65;100740.25;5074017;27;45477;-67
2022/09/02 03:48:42;;;;;;;;;19.00;16.33;;;;;24.02;40.48;100759.56;5106618;27;45501;-65
2022/09/02 03:51:08;;;;;;;;;17.67;15.67;;;;;23.96;40.61;100751.88;5073336;27;45435;-64
2022/09/02 03:53:34;;;;;;;;;17.67;15.00;;;;;24.01;41.04;100746.28;5073685;27;45472;-63
2022/09/02 03:56:10;;;;;;;;;18.33;15.67;;;;;24.01;40.87;100749.81;5077362;28;45400;-64
2022/09/02 03:58:37;;;;;;;;;16.00;13.33;;;;;23.99;41.32;100734.78;5080780;27;45356;-69
2022/09/02 04:01:04;;;;;;;;;16.00;15.67;;;;;23.99;41.44;100738.34;5077149;28;47116;-63
2022/09/02 04:03:30;;;;;;;;;17.00;14.00;;;;;23.84;41.93;100729.31;5075652;28;45471;-63
2022/09/02 04:05:56;;;;;;;;;20.00;19.00;;;;;23.77;42.46;100740.44;5075846;28;45463;-66
2022/09/02 04:08:23;;;;;;;;;17.67;17.33;;;;;23.61;42.80;100727.84;5080005;28;45566;-69
2022/09/02 04:10:49;;;;;;;;;17.67;15.33;;;;;23.68;42.73;100741.72;5113669;27;46146;-65
2022/09/02 04:13:15;;;;;;;;;12.67;12.00;;;;;23.76;42.73;100749.41;5080988;27;45334;-73
2022/09/02 04:15:43;;;;;;;;;15.00;13.33;;;;;23.79;42.83;100741.22;5077114;27;45682;-66
2022/09/02 04:18:10;;;;;;;;;15.67;13.33;;;;;23.76;43.29;100752.09;5077250;27;45700;-71
2022/09/02 04:20:39;;;;;;;;;14.67;13.33;;;;;23.78;43.21;100752.88;5064575;28;45880;-70
2022/09/02 04:23:05;;;;;;;;;14.67;13.33;;;;;23.78;43.34;100743.03;5078566;27;45317;-62
2022/09/02 04:25:31;;;;;;;;;12.33;9.67;;;;;23.78;43.48;100742.19;5076866;27;45349;-63
2022/09/02 04:27:57;;;;;;;;;15.00;11.67;;;;;23.86;43.49;100756.00;5078113;28;45475;-68
2022/09/02 04:30:24;;;;;;;;;12.33;10.67;;;;;23.82;43.86;100733.03;5075854;28;45915;-70
2022/09/02 04:32:51;;;;;;;;;9.33;8.33;;;;;23.88;44.18;100740.72;5077080;27;45386;-63
2022/09/02 04:35:17;;;;;;;;;11.67;8.33;;;;;23.89;44.49;100742.44;5076466;27;45395;-64
2022/09/02 04:37:45;;;;;;;;;12.00;10.33;;;;;23.90;44.30;100747.72;5077228;27;45419;-63
2022/09/02 04:40:11;;;;;;;;;9.67;8.67;;;;;23.86;44.58;100734.59;5074748;28;45427;-63
2022/09/02 04:42:37;;;;;;;;;8.67;8.33;;;;;23.83;45.29;100730.28;5077254;27;45407;-69
2022/09/02 04:45:03;;;;;;;;;7.67;7.67;;;;;23.82;45.08;100738.38;5080878;27;45511;-63
2022/09/02 04:47:29;;;;;;;;;11.00;10.33;;;;;23.80;45.82;100740.25;5111726;27;45492;-64
2022/09/02 04:49:55;;;;;;;;;10.33;8.00;;;;;23.79;46.26;100752.78;5075284;28;47263;-64
2022/09/02 04:52:21;;;;;;;;;10.00;10.00;;;;;23.69;46.43;100755.03;5076398;28;45414;-66
2022/09/02 04:54:46;;;;;;;;;7.00;7.00;;;;;23.67;46.56;100746.22;5079697;27;45502;-63
2022/09/02 04:57:12;;;;;;;;;6.67;6.67;;;;;23.66;47.13;100752.53;5080869;27;45471;-62
2022/09/02 04:59:38;;;;;;;;;8.67;8.67;;;;;23.66;47.97;100757.88;5078932;27;45502;-64
2022/09/02 05:02:04;;;;;;;;;7.00;7.00;;;;;23.56;48.58;100747.72;5074946;28;45490;-62
2022/09/02 05:04:31;;;;;;;;;8.00;8.00;;;;;23.60;49.02;100752.84;5076014;27;45317;-63
2022/09/02 05:06:59;;;;;;;;;8.00;8.00;;;;;23.48;50.51;100732.94;5076013;27;45510;-62
2022/09/02 05:09:24;;;;;;;;;7.67;7.67;;;;;23.45;49.67;100727.78;5079933;27;45392;-66
2022/09/02 05:11:51;;;;;;;;;9.00;7.33;;;;;23.47;49.50;100723.22;5075811;27;45982;-66
2022/09/02 05:14:19;;;;;;;;;7.00;7.00;;;;;23.47;49.48;100723.22;5079276;28;45372;-63
2022/09/02 05:16:44;;;;;;;;;7.33;6.33;;;;;23.50;49.83;100732.88;5110508;27;45397;-64
2022/09/02 05:19:12;;;;;;;;;12.00;12.00;;;;;23.22;52.55;100736.97;5085600;27;46998;-62
2022/09/02 05:21:42;;;;;;;;;11.00;10.00;;;;;23.04;53.08;100732.53;5088721;27;45586;-63
2022/09/02 05:24:08;;;;;;;;;14.33;13.67;;;;;22.86;52.59;100729.81;5077098;28;45820;-67
2022/09/02 05:26:34;;;;;;;;;11.33;11.33;;;;;22.71;53.50;100732.34;5079777;28;45424;-64
2022/09/02 05:29:02;;;;;;;;;10.00;10.00;;;;;22.70;53.16;100741.31;5076275;27;46361;-65
2022/09/02 05:31:27;;;;;;;;;12.00;9.67;;;;;22.73;52.79;100739.38;5091610;27;45746;-64
2022/09/02 05:33:53;;;;;;;;;13.67;12.00;;;;;22.49;51.75;100741.41;5075971;28;45553;-69
2022/09/02 05:36:20;;;;;;;;;14.33;13.33;;;;;22.49;51.65;100743.22;5108607;27;45809;-63
2022/09/02 05:38:47;;;;;;;;;11.67;10.67;;;;;22.42;51.47;100751.53;5076424;27;46016;-64
2022/09/02 05:41:16;;;;;;;;;13.67;12.67;;;;;22.41;51.53;100746.25;5078262;28;45543;-64
2022/09/02 05:43:47;;;;;;;;;15.00;13.33;;;;;22.38;51.40;100747.25;5092305;27;45457;-64
2022/09/02 05:46:19;;;;;;;;;12.33;11.33;;;;;22.29;51.17;100741.50;5082161;27;45498;-64
2022/09/02 05:51:31;;;;;;;;;14.33;13.33;;;;;22.09;51.70;100737.94;5074818;28;45611;-63
2022/09/02 05:53:58;;;;;;;;;12.67;12.00;;;;;22.06;51.27;100737.19;5076864;27;45400;-68
2022/09/02 05:56:24;;;;;;;;;13.33;10.67;;;;;21.97;51.57;100722.47;5077324;27;45251;-68
2022/09/02 05:58:50;;;;;;;;;16.00;15.67;;;;;22.10;51.45;100725.44;5074655;27;46081;-62
2022/09/02 06:01:18;;;;;;;;;19.00;11.33;;;;;22.13;51.67;100736.81;5078625;27;45375;-63
2022/09/02 06:03:44;;;;;;;;;16.33;14.00;;;;;22.05;51.06;100730.13;5107206;27;45493;-64
2022/09/02 06:06:10;;;;;;;;;15.67;15.33;;;;;22.07;50.51;100731.78;5075279;27;45503;-69
2022/09/02 06:08:37;;;;;;;;;19.67;15.67;;;;;22.11;51.03;100737.84;5073347;27;45833;-69
2022/09/02 06:11:03;;;;;;;;;15.33;13.33;;;;;22.01;50.87;100754.25;5061562;28;45391;-64
2022/09/02 06:13:31;;;;;;;;;13.67;13.67;;;;;21.89;51.44;100751.28;5062853;28;45477;-63
2022/09/02 06:15:56;;;;;;;;;15.67;13.33;;;;;21.92;51.72;100754.66;5055334;28;45571;-67
2022/09/02 06:18:23;;;;;;;;;16.33;16.00;;;;;21.90;51.88;100745.91;5065527;27;45485;-67
2022/09/02 06:20:49;;;;;;;;;16.67;15.00;;;;;21.77;51.94;100740.22;5051591;28;45561;-64
2022/09/02 06:23:16;;;;;;;;;17.00;16.00;;;;;21.69;51.96;100747.72;5070456;27;45445;-63
2022/09/02 06:25:45;;;;;;;;;19.00;14.67;;;;;21.57;51.80;100743.78;5058227;27;45495;-69
2022/09/02 06:28:12;;;;;;;;;16.00;16.00;;;;;21.60;51.52;100745.44;5069667;27;48063;-66
2022/09/02 06:30:43;;;;;;;;;17.00;15.67;;;;;21.48;52.01;100736.19;5049073;28;45752;-66
2022/09/02 06:33:10;;;;;;;;;16.00;13.67;;;;;21.59;52.07;100741.03;5052642;28;45482;-66
2022/09/02 06:35:38;;;;;;;;;13.33;12.33;;;;;21.66;51.92;100726.50;5073352;27;45579;-71
2022/09/02 06:38:04;;;;;;;;;12.67;12.00;;;;;21.83;51.59;100730.22;5067213;27;45529;-63
2022/09/02 06:40:30;;;;;;;;;12.00;12.00;;;;;21.90;51.81;100723.66;5061497;28;45659;-70
2022/09/02 06:42:56;;;;;;;;;15.67;13.67;;;;;21.96;50.91;100734.06;5060243;28;45465;-66
2022/09/02 06:45:25;;;;;;;;;15.00;13.67;;;;;22.05;50.66;100735.47;5068029;28;45404;-68
2022/09/02 06:47:52;;;;;;;;;14.00;11.67;;;;;22.19;50.69;100741.03;5062535;27;45527;-70
2022/09/02 06:50:21;;;;;;;;;10.33;10.00;;;;;22.26;50.10;100725.59;5054531;28;45428;-66
2022/09/02 06:52:48;;;;;;;;;13.00;12.33;;;;;22.29;50.01;100733.50;5059247;27;45600;-63
2022/09/02 06:55:17;;;;;;;;;16.33;11.00;;;;;22.36;49.40;100726.94;5071594;27;45466;-71
2022/09/02 06:57:43;;;;;;;;;15.00;13.67;;;;;22.51;49.25;100728.00;5064367;28;45479;-65
2022/09/02 07:00:10;;;;;;;;;13.00;13.00;;;;;22.62;48.53;100723.88;5071552;27;45462;-67
2022/09/02 07:02:39;;;;;;;;;13.00;12.33;;;;;22.68;48.56;100730.72;5060225;28;45424;-69
2022/09/02 07:05:08;;;;;;;;;12.67;11.67;;;;;22.84;48.09;100734.34;5064628;27;45396;-65
2022/09/02 07:07:39;;;;;;;;;11.33;11.00;;;;;22.90;47.66;100724.31;5054081;28;46442;-67
2022/09/02 07:10:08;;;;;;;;;12.67;12.33;;;;;22.88;47.96;100731.56;5072597;27;45554;-65
2022/09/02 07:12:35;;;;;;;;;14.33;12.00;;;;;22.83;48.31;100737.97;5066839;27;45479;-64
2022/09/02 07:15:01;;;;;;;;;11.00;10.33;;;;;22.84;47.92;100731.69;5068510;28;45506;-64
2022/09/02 07:17:27;;;;;;;;;9.67;9.67;;;;;22.91;47.78;100734.94;5056531;28;45539;-64
2022/09/02 07:19:56;;;;;;;;;9.33;9.33;;;;;22.80;48.08;100730.13;5061524;27;45485;-66
2022/09/02 07:22:21;;;;;;;;;11.67;11.67;;;;;22.70;47.84;100726.16;5071646;27;45511;-63
2022/09/02 07:24:47;;;;;;;;;13.00;13.00;;;;;22.67;47.14;100730.81;5073499;27;45481;-65
2022/09/02 07:27:13;;;;;;;;;15.33;14.00;;;;;22.53;47.19;100718.97;5074792;27;45986;-64
2022/09/02 07:29:43;;;;;;;;;12.67;12.67;;;;;22.42;47.69;100715.94;5080738;27;45502;-64
2022/09/02 07:32:09;;;;;;;;;13.67;13.67;;;;;22.32;48.26;100710.19;5110245;27;45441;-63
2022/09/02 07:34:35;;;;;;;;;16.00;14.00;;;;;22.35;47.92;100717.19;5076372;28;45989;-64
2022/09/02 07:37:00;;;;;;;;;13.67;12.33;;;;;22.20;47.81;100708.06;5078969;27;45436;-63
2022/09/02 07:39:26;;;;;;;;;11.67;11.67;;;;;22.23;48.45;100706.16;5090575;27;45875;-62
2022/09/02 07:41:52;;;;;;;;;12.00;10.33;;;;;22.36;47.74;100717.13;5063695;27;45416;-66
2022/09/02 07:44:20;;;;;;;;;12.67;11.33;;;;;22.39;47.68;100711.63;5057348;27;45497;-65
2022/09/02 07:46:47;;;;;;;;;14.00;13.33;;;;;22.55;46.81;100713.56;5061181;27;46286;-64
2022/09/02 07:49:14;;;;;;;;;16.33;14.33;;;;;22.62;46.80;100717.69;5057696;27;45496;-67
2022/09/02 07:51:42;;;;;;;;;15.33;13.67;;;;;22.68;46.42;100728.03;5089474;27;45384;-65
2022/09/02 07:54:11;;;;;;;;;13.00;13.00;;;;;22.66;46.09;100719.25;5061095;27;45420;-67
2022/09/02 07:56:37;;;;;;;;;10.67;10.67;;;;;22.66;46.50;100711.25;5057564;27;46128;-69
2022/09/02 07:59:03;;;;;;;;;10.67;10.67;;;;;22.68;45.92;100705.81;5059952;27;45525;-64
2022/09/02 08:01:30;;;;;;;;;13.33;10.67;;;;;22.82;46.03;100717.53;5056701;27;45731;-69
2022/09/02 08:03:56;;;;;;;;;11.67;10.33;;;;;22.84;46.50;100721.00;5056116;27;45532;-70
2022/09/02 08:06:26;;;;;;;;;17.33;16.00;;;;;22.83;45.15;100731.78;5055971;27;46078;-68
2022/09/02 08:08:53;;;;;;;;;14.33;13.00;;;;;22.83;45.55;100739.81;5065882;27;45422;-66
2022/09/02 08:11:19;;;;;;;;;11.67;11.67;;;;;22.77;45.60;100756.97;5066687;27;45366;-72
2022/09/02 08:13:45;;;;;;;;;15.33;13.00;;;;;22.76;45.51;100752.56;5057304;27;45321;-68
2022/09/02 08:16:11;;;;;;;;;18.33;16.00;;;;;22.73;46.35;100755.41;5057590;27;45434;-73
2022/09/02 08:18:37;;;;;;;;;13.33;12.00;;;;;22.70;45.63;100750.19;5063999;27;45504;-66
2022/09/02 08:21:03;;;;;;;;;12.33;12.33;;;;;22.58;45.48;100743.63;5058571;27;45543;-64
2022/09/02 08:23:29;;;;;;;;;10.33;10.33;;;;;22.65;46.44;100747.75;5080890;27;45231;-75
2022/09/02 08:25:58;;;;;;;;;13.00;12.67;;;;;22.66;45.99;100751.31;5084482;27;46152;-67
2022/09/02 08:28:24;;;;;;;;;15.00;14.00;;;;;22.70;45.29;100760.88;5074758;27;45529;-65
2022/09/02 08:30:49;;;;;;;;;13.67;13.67;;;;;22.63;45.04;100740.75;5068492;28;45887;-64
2022/09/02 08:33:15;;;;;;;;;12.00;11.00;;;;;22.80;44.95;100775.53;5074879;28;45428;-63
2022/09/02 08:35:41;;;;;;;;;14.00;11.00;;;;;22.80;45.49;100779.97;5075766;28;45421;-63
2022/09/02 08:38:06;;;;;;;;;10.33;10.33;;;;;22.88;45.35;100807.19;5074198;28;45843;-65
2022/09/02 08:40:43;;;;;;;;;10.00;10.00;;;;;22.97;44.97;100817.44;5074986;27;45382;-64
2022/09/02 08:43:38;;;;;;;;;13.00;9.33;;;;;22.95;45.00;100805.09;5086496;27;45411;-64
2022/09/02 08:46:08;;;;;;;;;11.00;10.33;;;;;22.90;45.10;100802.66;5078523;28;45563;-64
2022/09/02 08:48:54;;;;;;;;;14.00;10.33;;;;;22.85;44.87;100813.56;5078630;28;45424;-65
2022/09/02 08:51:26;;;;;;;;;14.00;11.33;;;;;22.98;45.32;100824.53;5080244;28;45437;-66
2022/09/02 08:54:15;;;;;;;;;11.33;11.33;;;;;22.95;46.01;100800.63;5066323;28;45483;-65
2022/09/02 08:56:41;;;;;;;;;10.67;10.67;;;;;23.08;46.98;100814.25;5075110;27;46075;-66
2022/09/02 08:59:09;;;;;;;;;12.67;10.67;;;;;23.12;47.48;100810.50;5074391;28;45639;-68
2022/09/02 09:01:40;;;;;;;;;12.33;11.67;;;;;23.26;47.38;100809.84;5075710;27;45544;-63
2022/09/02 09:04:31;;;;;;;;;11.67;10.00;;;;;23.40;47.06;100811.81;5075434;27;45344;-64
2022/09/02 09:06:59;;;;;;;;;12.67;10.00;;;;;23.52;47.13;100813.00;5075542;27;47216;-67
2022/09/02 09:09:54;;;;;;;;;11.33;10.33;;;;;23.61;46.95;100809.84;5075302;27;45376;-65
2022/09/02 09:12:23;;;;;;;;;9.33;9.33;;;;;23.70;46.71;100801.34;5052443;28;45595;-65
2022/09/02 09:15:17;;;;;;;;;11.33;10.00;;;;;23.81;46.55;100803.50;5070554;27;45430;-67
2022/09/02 09:17:56;;;;;;;;;8.67;7.67;;;;;23.91;46.29;100796.72;5058514;27;46160;-68
2022/09/02 09:20:36;;;;;;;;;8.33;8.33;;;;;23.99;46.26;100798.97;5064229;28;45652;-67
2022/09/02 09:23:32;;;;;;;;;15.33;11.00;;;;;24.03;46.39;100790.72;5073812;27;45400;-65
2022/09/02 09:26:25;;;;;;;;;15.00;12.67;;;;;24.11;46.50;100788.50;5079619;27;45306;-71
2022/09/02 09:28:50;;;;;;;;;15.67;13.33;;;;;24.11;48.41;100793.88;5074738;27;45502;-69
2022/09/02 09:31:19;;;;;;;;;11.00;10.50;;;;;24.10;47.08;100796.63;5088852;27;45542;-71
2022/09/02 09:34:02;;;;;;;;;11.33;9.00;;;;;24.27;46.19;100782.31;5073413;27;45579;-70
2022/09/02 09:36:40;;;;;;;;;12.67;10.00;;;;;24.46;45.78;100793.78;5074878;28;45613;-69
2022/09/02 09:39:24;;;;;;;;;8.67;8.67;;;;;24.49;45.45;100766.84;5076220;27;45475;-69
2022/09/02 09:41:52;;;;;;;;;11.33;9.33;;;;;24.59;45.53;100761.84;5065220;28;45565;-70
2022/09/02 09:44:48;;;;;;;;;9.00;9.00;;;;;24.77;45.07;100770.63;5078889;27;45279;-73
2022/09/02 09:47:21;;;;;;;;;12.00;12.00;;;;;24.77;45.27;100759.91;5061932;28;45696;-68
2022/09/02 09:49:49;;;;;;;;;12.33;12.33;;;;;24.90;44.74;100777.03;5088045;27;45466;-65
2022/09/02 09:52:23;;;;;;;;;10.33;8.33;;;;;24.93;44.36;100768.81;5052559;28;45572;-66
2022/09/02 09:55:21;;;;;;;;;14.33;12.00;;;;;24.94;44.98;100775.06;5054115;27;45414;-65
2022/09/02 09:57:48;;;;;;;;;11.67;10.33;;;;;24.92;44.40;100772.47;5050666;27;45327;-66
2022/09/02 10:00:30;;;;;;;;;10.33;9.67;;;;;24.95;44.78;100768.72;5053757;27;46005;-65
2022/09/02 10:02:59;;;;;;;;;14.33;10.00;;;;;24.97;44.84;100754.28;5059825;27;45444;-65
2022/09/02 10:05:37;;;;;;;;;12.33;10.33;;;;;24.98;44.79;100760.50;5061134;27;45448;-66
2022/09/02 10:08:17;;;;;;;;;11.00;11.00;;;;;24.84;45.72;100772.00;5054395;27;45963;-65
2022/09/02 10:11:00;;;;;;;;;11.00;11.00;;;;;24.87;44.31;100754.94;5086537;27;47196;-67
2022/09/02 10:13:29;;;;;;;;;10.67;9.67;;;;;24.97;44.12;100758.78;5060193;27;45597;-66
2022/09/02 10:16:10;;;;;;;;;11.67;11.33;;;;;24.90;43.70;100744.88;5053829;27;45298;-67
2022/09/02 10:18:57;;;;;;;;;11.33;11.33;;;;;24.87;44.39;100752.25;5067598;27;46296;-66
2022/09/02 10:21:28;;;;;;;;;17.00;13.33;;;;;24.73;43.86;100750.34;5057865;28;46077;-65
2022/09/02 10:24:22;;;;;;;;;12.00;12.00;;;;;24.66;43.93;100746.31;5073388;27;45489;-65
2022/09/02 10:26:53;;;;;;;;;12.00;12.00;;;;;24.63;44.47;100741.09;5067125;27;45563;-65
2022/09/02 10:29:38;;;;;;;;;10.33;10.33;;;;;24.72;44.47;100749.47;5084454;27;45503;-64
2022/09/02 10:32:37;;;;;;;;;10.67;10.67;;;;;24.79;43.90;100752.66;5077798;28;46097;-66
2022/09/02 10:35:28;;;;;;;;;13.00;11.00;;;;;24.83;43.29;100740.84;5076157;28;45409;-66
2022/09/02 10:38:23;;;;;;;;;10.67;9.67;;;;;24.87;43.33;100736.19;5075337;27;45259;-68
2022/09/02 10:41:00;;;;;;;;;10.67;9.00;;;;;24.92;43.76;100743.00;5074105;27;45369;-65
2022/09/02 10:43:26;;;;;;;;;9.00;9.00;;;;;24.90;43.72;100738.66;5060572;27;46228;-70
2022/09/02 10:46:00;;;;;;;;;9.67;9.67;;;;;24.89;43.21;100727.09;5073198;27;45566;-64
2022/09/02 10:48:34;;;;;;;;;14.00;10.67;;;;;24.97;43.23;100737.38;5073721;27;45408;-66
2022/09/02 10:51:23;;;;;;;;;9.67;9.67;;;;;24.98;43.30;100729.22;5073830;27;45479;-65
2022/09/02 10:54:17;;;;;;;;;10.67;10.67;;;;;25.01;43.31;100733.56;5073159;28;46782;-66
2022/09/02 10:56:55;;;;;;;;;10.00;10.00;;;;;25.04;43.75;100725.34;5079392;27;45911;-67
2022/09/02 10:59:28;;;;;;;;;12.00;12.00;;;;;25.04;42.93;100732.53;5073073;27;45753;-66
2022/09/02 11:02:09;;;;;;;;;11.33;10.33;;;;;24.89;43.45;100732.47;5071388;27;45377;-66
2022/09/02 11:04:51;;;;;;;;;9.67;9.00;;;;;24.81;43.63;100721.31;5073455;27;45451;-67
2022/09/02 11:07:26;;;;;;;;;12.00;11.00;;;;;24.92;43.47;100726.06;5073648;27;45477;-66
2022/09/02 11:09:57;;;;;;;;;10.33;10.33;;;;;24.86;43.75;100731.75;5073897;27;45568;-65
2022/09/02 11:12:35;;;;;;;;;11.33;11.33;;;;;24.78;43.95;100729.53;5073871;28;45424;-69
2022/09/02 11:15:17;;;;;;;;;15.67;13.00;;;;;24.62;45.37;100728.66;5075211;27;45510;-65
2022/09/02 11:18:03;;;;;;;;;14.67;12.33;;;;;24.59;45.45;100716.31;5077325;28;45505;-65
2022/09/02 11:20:34;;;;;;;;;13.67;12.33;;;;;24.63;45.02;100717.88;5062103;28;45536;-69
2022/09/02 11:23:11;;;;;;;;;18.67;15.00;;;;;24.59;46.80;100718.16;5105415;27;45840;-65
2022/09/02 11:25:59;;;;;;;;;17.67;17.67;;;;;24.52;47.48;100717.63;5077199;27;45531;-68
2022/09/02 11:29:01;;;;;;;;;20.00;19.00;;;;;24.49;46.94;100707.94;5072636;28;45507;-66
2022/09/02 11:31:55;;;;;;;;;15.67;15.00;;;;;24.40;47.58;100705.75;5055585;27;45415;-67